sensor_id;sensor_type;location;lat;lon;timestamp;P1;durP1;ratioP1;P2;durP2;ratioP2
32521;SDS011;18963;51.504;5.316;2023-03-21T00:01:02;12.00;;;7.35;;
32521;SDS011;18963;51.504;5.316;2023-03-21T00:03:29;14.88;;;7.30;;
32521;SDS011;18963;51.504;5.316;2023-03-21T00:05:55;12.93;;;7.47;;
32521;SDS011;18963;51.504;5.316;2023-03-21T00:08:22;16.13;;;8.27;;
32521;SDS011;18963;51.504;5.316;2023-03-21T00:10:58;12.38;;;7.97;;
32521;SDS011;18963;51.504;5.316;2023-03-21T00:13:26;12.93;;;8.30;;
32521;SDS011;18963;51.504;5.316;2023-03-21T00:15:56;12.32;;;7.88;;
32521;SDS011;18963;51.504;5.316;2023-03-21T00:18:29;10.13;;;7.03;;
32521;SDS011;18963;51.504;5.316;2023-03-21T00:20:58;13.85;;;8.13;;
32521;SDS011;18963;51.504;5.316;2023-03-21T00:23:29;12.15;;;7.82;;
32521;SDS011;18963;51.504;5.316;2023-03-21T00:25:55;13.50;;;7.75;;
32521;SDS011;18963;51.504;5.316;2023-03-21T00:28:21;12.07;;;7.50;;
32521;SDS011;18963;51.504;5.316;2023-03-21T00:30:48;12.95;;;8.00;;
32521;SDS011;18963;51.504;5.316;2023-03-21T00:33:14;18.13;;;8.38;;
32521;SDS011;18963;51.504;5.316;2023-03-21T00:35:40;15.23;;;8.00;;
32521;SDS011;18963;51.504;5.316;2023-03-21T00:38:08;16.75;;;7.80;;
32521;SDS011;18963;51.504;5.316;2023-03-21T00:40:34;11.32;;;7.00;;
32521;SDS011;18963;51.504;5.316;2023-03-21T00:45:26;14.23;;;7.40;;
32521;SDS011;18963;51.504;5.316;2023-03-21T00:47:51;15.23;;;7.43;;
32521;SDS011;18963;51.504;5.316;2023-03-21T00:50:17;13.02;;;7.93;;
32521;SDS011;18963;51.504;5.316;2023-03-21T00:52:43;12.55;;;7.35;;
32521;SDS011;18963;51.504;5.316;2023-03-21T00:55:11;13.10;;;8.07;;
32521;SDS011;18963;51.504;5.316;2023-03-21T00:57:39;12.27;;;6.70;;
32521;SDS011;18963;51.504;5.316;2023-03-21T01:00:05;13.65;;;7.30;;
32521;SDS011;18963;51.504;5.316;2023-03-21T01:02:34;17.35;;;8.23;;
32521;SDS011;18963;51.504;5.316;2023-03-21T01:05:01;11.63;;;6.55;;
32521;SDS011;18963;51.504;5.316;2023-03-21T01:07:28;13.07;;;6.82;;
32521;SDS011;18963;51.504;5.316;2023-03-21T01:09:53;11.68;;;7.22;;
32521;SDS011;18963;51.504;5.316;2023-03-21T01:12:19;9.73;;;6.72;;
32521;SDS011;18963;51.504;5.316;2023-03-21T01:14:45;10.95;;;7.25;;
32521;SDS011;18963;51.504;5.316;2023-03-21T01:17:11;12.20;;;6.47;;
32521;SDS011;18963;51.504;5.316;2023-03-21T01:19:36;12.82;;;6.68;;
32521;SDS011;18963;51.504;5.316;2023-03-21T01:22:02;14.10;;;6.75;;
32521;SDS011;18963;51.504;5.316;2023-03-21T01:24:28;11.63;;;7.03;;
32521;SDS011;18963;51.504;5.316;2023-03-21T01:26:54;15.57;;;6.70;;
32521;SDS011;18963;51.504;5.316;2023-03-21T01:31:45;9.73;;;6.53;;
32521;SDS011;18963;51.504;5.316;2023-03-21T01:34:11;8.57;;;5.75;;
32521;SDS011;18963;51.504;5.316;2023-03-21T01:36:36;8.35;;;5.90;;
32521;SDS011;18963;51.504;5.316;2023-03-21T01:41:29;10.63;;;6.45;;
32521;SDS011;18963;51.504;5.316;2023-03-21T01:44:05;10.27;;;6.07;;
32521;SDS011;18963;51.504;5.316;2023-03-21T01:49:18;11.93;;;6.22;;
32521;SDS011;18963;51.504;5.316;2023-03-21T01:51:57;12.07;;;6.70;;
32521;SDS011;18963;51.504;5.316;2023-03-21T01:54:35;11.80;;;6.53;;
32521;SDS011;18963;51.504;5.316;2023-03-21T01:57:05;10.20;;;6.53;;
32521;SDS011;18963;51.504;5.316;2023-03-21T02:02:08;11.30;;;6.57;;
32521;SDS011;18963;51.504;5.316;2023-03-21T02:04:37;10.77;;;6.07;;
32521;SDS011;18963;51.504;5.316;2023-03-21T02:07:11;10.23;;;6.25;;
32521;SDS011;18963;51.504;5.316;2023-03-21T02:12:07;10.50;;;6.72;;
32521;SDS011;18963;51.504;5.316;2023-03-21T02:17:02;11.32;;;6.40;;
32521;SDS011;18963;51.504;5.316;2023-03-21T02:35:59;10.52;;;6.40;;
32521;SDS011;18963;51.504;5.316;2023-03-21T02:44:19;11.63;;;5.93;;
32521;SDS011;18963;51.504;5.316;2023-03-21T02:46:52;9.52;;;6.47;;
32521;SDS011;18963;51.504;5.316;2023-03-21T02:49:25;8.60;;;5.93;;
32521;SDS011;18963;51.504;5.316;2023-03-21T02:51:57;9.82;;;6.63;;
32521;SDS011;18963;51.504;5.316;2023-03-21T02:54:23;9.43;;;6.00;;
32521;SDS011;18963;51.504;5.316;2023-03-21T02:56:51;11.27;;;6.40;;
32521;SDS011;18963;51.504;5.316;2023-03-21T02:59:20;11.80;;;6.43;;
32521;SDS011;18963;51.504;5.316;2023-03-21T03:01:48;9.57;;;6.03;;
32521;SDS011;18963;51.504;5.316;2023-03-21T03:04:20;9.93;;;6.32;;
32521;SDS011;18963;51.504;5.316;2023-03-21T03:12:16;10.95;;;6.25;;
32521;SDS011;18963;51.504;5.316;2023-03-21T03:14:49;14.00;;;6.18;;
32521;SDS011;18963;51.504;5.316;2023-03-21T03:20:01;13.05;;;6.78;;
32521;SDS011;18963;51.504;5.316;2023-03-21T03:25:41;11.30;;;5.95;;
32521;SDS011;18963;51.504;5.316;2023-03-21T03:28:15;15.20;;;6.82;;
32521;SDS011;18963;51.504;5.316;2023-03-21T03:30:45;13.50;;;6.82;;
32521;SDS011;18963;51.504;5.316;2023-03-21T03:33:12;10.77;;;6.72;;
32521;SDS011;18963;51.504;5.316;2023-03-21T03:35:41;12.23;;;6.18;;
32521;SDS011;18963;51.504;5.316;2023-03-21T03:38:08;11.40;;;6.28;;
32521;SDS011;18963;51.504;5.316;2023-03-21T03:40:40;10.80;;;6.25;;
32521;SDS011;18963;51.504;5.316;2023-03-21T03:43:11;12.30;;;6.55;;
32521;SDS011;18963;51.504;5.316;2023-03-21T03:45:42;10.77;;;6.40;;
32521;SDS011;18963;51.504;5.316;2023-03-21T03:48:13;12.27;;;6.72;;
32521;SDS011;18963;51.504;5.316;2023-03-21T03:53:21;11.10;;;6.93;;
32521;SDS011;18963;51.504;5.316;2023-03-21T03:55:53;12.70;;;6.43;;
32521;SDS011;18963;51.504;5.316;2023-03-21T03:58:21;12.73;;;7.10;;
32521;SDS011;18963;51.504;5.316;2023-03-21T04:00:48;14.85;;;7.60;;
32521;SDS011;18963;51.504;5.316;2023-03-21T04:03:15;12.55;;;6.82;;
32521;SDS011;18963;51.504;5.316;2023-03-21T04:08:06;12.27;;;6.90;;
32521;SDS011;18963;51.504;5.316;2023-03-21T04:10:32;12.73;;;7.07;;
32521;SDS011;18963;51.504;5.316;2023-03-21T04:15:24;15.25;;;7.50;;
32521;SDS011;18963;51.504;5.316;2023-03-21T04:17:49;13.77;;;7.05;;
32521;SDS011;18963;51.504;5.316;2023-03-21T04:20:15;12.63;;;7.25;;
32521;SDS011;18963;51.504;5.316;2023-03-21T04:22:41;12.88;;;7.32;;
32521;SDS011;18963;51.504;5.316;2023-03-21T04:25:07;13.38;;;7.15;;
32521;SDS011;18963;51.504;5.316;2023-03-21T04:27:33;13.18;;;7.20;;
32521;SDS011;18963;51.504;5.316;2023-03-21T04:32:24;14.10;;;7.05;;
32521;SDS011;18963;51.504;5.316;2023-03-21T04:34:51;12.82;;;7.05;;
32521;SDS011;18963;51.504;5.316;2023-03-21T04:37:19;12.38;;;7.88;;
32521;SDS011;18963;51.504;5.316;2023-03-21T04:39:47;12.43;;;7.25;;
32521;SDS011;18963;51.504;5.316;2023-03-21T04:42:14;15.38;;;7.40;;
32521;SDS011;18963;51.504;5.316;2023-03-21T04:44:42;14.73;;;7.63;;
32521;SDS011;18963;51.504;5.316;2023-03-21T04:47:09;12.10;;;6.75;;
32521;SDS011;18963;51.504;5.316;2023-03-21T04:49:37;15.35;;;7.68;;
32521;SDS011;18963;51.504;5.316;2023-03-21T04:54:28;9.70;;;6.45;;
32521;SDS011;18963;51.504;5.316;2023-03-21T04:56:54;12.60;;;7.97;;
32521;SDS011;18963;51.504;5.316;2023-03-21T04:59:20;13.52;;;7.25;;
32521;SDS011;18963;51.504;5.316;2023-03-21T05:01:45;15.50;;;7.47;;
32521;SDS011;18963;51.504;5.316;2023-03-21T05:04:12;13.32;;;7.80;;
32521;SDS011;18963;51.504;5.316;2023-03-21T05:06:38;11.52;;;7.70;;
32521;SDS011;18963;51.504;5.316;2023-03-21T05:09:06;14.63;;;8.07;;
32521;SDS011;18963;51.504;5.316;2023-03-21T05:11:33;11.98;;;7.90;;
32521;SDS011;18963;51.504;5.316;2023-03-21T05:14:02;15.68;;;8.60;;
32521;SDS011;18963;51.504;5.316;2023-03-21T05:16:28;11.93;;;8.52;;
32521;SDS011;18963;51.504;5.316;2023-03-21T05:21:20;16.75;;;8.50;;
32521;SDS011;18963;51.504;5.316;2023-03-21T05:23:47;13.40;;;7.63;;
32521;SDS011;18963;51.504;5.316;2023-03-21T05:26:19;14.77;;;7.63;;
32521;SDS011;18963;51.504;5.316;2023-03-21T05:28:46;18.15;;;8.30;;
32521;SDS011;18963;51.504;5.316;2023-03-21T05:31:15;13.52;;;8.25;;
32521;SDS011;18963;51.504;5.316;2023-03-21T05:33:42;15.25;;;7.82;;
32521;SDS011;18963;51.504;5.316;2023-03-21T05:36:08;12.10;;;6.82;;
32521;SDS011;18963;51.504;5.316;2023-03-21T05:38:35;15.25;;;7.93;;
32521;SDS011;18963;51.504;5.316;2023-03-21T05:43:26;11.60;;;7.13;;
32521;SDS011;18963;51.504;5.316;2023-03-21T05:45:52;13.45;;;7.38;;
32521;SDS011;18963;51.504;5.316;2023-03-21T05:48:18;12.85;;;8.10;;
32521;SDS011;18963;51.504;5.316;2023-03-21T05:50:44;13.55;;;7.47;;
32521;SDS011;18963;51.504;5.316;2023-03-21T05:53:10;16.17;;;7.30;;
32521;SDS011;18963;51.504;5.316;2023-03-21T05:55:36;15.13;;;7.20;;
32521;SDS011;18963;51.504;5.316;2023-03-21T05:58:02;12.75;;;7.28;;
32521;SDS011;18963;51.504;5.316;2023-03-21T06:00:28;12.60;;;7.18;;
32521;SDS011;18963;51.504;5.316;2023-03-21T06:05:19;11.82;;;9.55;;
32521;SDS011;18963;51.504;5.316;2023-03-21T06:07:45;12.48;;;8.98;;
32521;SDS011;18963;51.504;5.316;2023-03-21T06:10:10;11.85;;;9.40;;
32521;SDS011;18963;51.504;5.316;2023-03-21T06:12:36;13.07;;;8.38;;
32521;SDS011;18963;51.504;5.316;2023-03-21T06:15:02;12.57;;;8.27;;
32521;SDS011;18963;51.504;5.316;2023-03-21T06:17:29;12.98;;;8.93;;
32521;SDS011;18963;51.504;5.316;2023-03-21T06:19:55;10.10;;;9.02;;
32521;SDS011;18963;51.504;5.316;2023-03-21T06:22:22;12.48;;;8.90;;
32521;SDS011;18963;51.504;5.316;2023-03-21T06:27:13;10.40;;;7.97;;
32521;SDS011;18963;51.504;5.316;2023-03-21T06:29:38;13.45;;;8.13;;
32521;SDS011;18963;51.504;5.316;2023-03-21T06:32:05;11.60;;;8.20;;
32521;SDS011;18963;51.504;5.316;2023-03-21T06:34:31;10.18;;;8.73;;
32521;SDS011;18963;51.504;5.316;2023-03-21T06:36:57;16.13;;;8.63;;
32521;SDS011;18963;51.504;5.316;2023-03-21T06:41:49;12.73;;;7.80;;
32521;SDS011;18963;51.504;5.316;2023-03-21T06:46:40;11.18;;;9.30;;
32521;SDS011;18963;51.504;5.316;2023-03-21T06:49:06;13.77;;;8.63;;
32521;SDS011;18963;51.504;5.316;2023-03-21T06:51:31;15.20;;;8.80;;
32521;SDS011;18963;51.504;5.316;2023-03-21T06:53:57;11.18;;;8.55;;
32521;SDS011;18963;51.504;5.316;2023-03-21T06:56:23;11.75;;;7.70;;
32521;SDS011;18963;51.504;5.316;2023-03-21T06:58:48;11.50;;;7.65;;
32521;SDS011;18963;51.504;5.316;2023-03-21T07:01:14;12.23;;;8.25;;
32521;SDS011;18963;51.504;5.316;2023-03-21T07:06:06;11.55;;;8.85;;
32521;SDS011;18963;51.504;5.316;2023-03-21T07:08:35;13.07;;;8.30;;
32521;SDS011;18963;51.504;5.316;2023-03-21T07:11:02;10.40;;;7.63;;
32521;SDS011;18963;51.504;5.316;2023-03-21T07:15:53;10.77;;;8.45;;
32521;SDS011;18963;51.504;5.316;2023-03-21T07:18:19;12.25;;;7.85;;
32521;SDS011;18963;51.504;5.316;2023-03-21T07:20:45;13.95;;;8.40;;
32521;SDS011;18963;51.504;5.316;2023-03-21T07:23:18;16.35;;;9.10;;
32521;SDS011;18963;51.504;5.316;2023-03-21T07:25:46;13.38;;;9.18;;
32521;SDS011;18963;51.504;5.316;2023-03-21T07:28:13;10.27;;;8.77;;
32521;SDS011;18963;51.504;5.316;2023-03-21T07:30:40;13.10;;;8.15;;
32521;SDS011;18963;51.504;5.316;2023-03-21T07:35:31;17.80;;;9.38;;
32521;SDS011;18963;51.504;5.316;2023-03-21T07:37:58;13.98;;;9.38;;
32521;SDS011;18963;51.504;5.316;2023-03-21T07:42:49;13.68;;;8.82;;
32521;SDS011;18963;51.504;5.316;2023-03-21T07:45:15;14.63;;;9.32;;
32521;SDS011;18963;51.504;5.316;2023-03-21T07:47:45;13.05;;;9.25;;
32521;SDS011;18963;51.504;5.316;2023-03-21T07:50:11;12.23;;;8.45;;
32521;SDS011;18963;51.504;5.316;2023-03-21T07:52:37;15.18;;;9.15;;
32521;SDS011;18963;51.504;5.316;2023-03-21T07:55:03;14.15;;;9.43;;
32521;SDS011;18963;51.504;5.316;2023-03-21T07:57:29;14.52;;;9.13;;
32521;SDS011;18963;51.504;5.316;2023-03-21T07:59:54;11.88;;;9.65;;
32521;SDS011;18963;51.504;5.316;2023-03-21T08:02:20;11.80;;;9.60;;
32521;SDS011;18963;51.504;5.316;2023-03-21T08:04:46;13.43;;;8.85;;
32521;SDS011;18963;51.504;5.316;2023-03-21T08:07:11;14.80;;;9.73;;
32521;SDS011;18963;51.504;5.316;2023-03-21T08:09:37;12.43;;;10.40;;
32521;SDS011;18963;51.504;5.316;2023-03-21T08:12:04;14.75;;;10.23;;
32521;SDS011;18963;51.504;5.316;2023-03-21T08:14:30;15.80;;;9.30;;
32521;SDS011;18963;51.504;5.316;2023-03-21T08:16:55;16.38;;;9.95;;
32521;SDS011;18963;51.504;5.316;2023-03-21T08:19:21;12.70;;;8.82;;
32521;SDS011;18963;51.504;5.316;2023-03-21T08:21:47;13.27;;;8.50;;
32521;SDS011;18963;51.504;5.316;2023-03-21T08:24:14;15.30;;;9.18;;
32521;SDS011;18963;51.504;5.316;2023-03-21T08:26:40;12.07;;;8.75;;
32521;SDS011;18963;51.504;5.316;2023-03-21T08:29:06;13.90;;;8.85;;
32521;SDS011;18963;51.504;5.316;2023-03-21T08:31:32;12.60;;;9.10;;
32521;SDS011;18963;51.504;5.316;2023-03-21T08:33:58;12.65;;;8.88;;
32521;SDS011;18963;51.504;5.316;2023-03-21T08:36:23;12.52;;;8.48;;
32521;SDS011;18963;51.504;5.316;2023-03-21T08:38:49;11.57;;;9.13;;
32521;SDS011;18963;51.504;5.316;2023-03-21T08:41:18;11.63;;;9.30;;
32521;SDS011;18963;51.504;5.316;2023-03-21T08:43:46;10.73;;;8.63;;
32521;SDS011;18963;51.504;5.316;2023-03-21T08:46:12;10.65;;;8.93;;
32521;SDS011;18963;51.504;5.316;2023-03-21T08:48:38;12.18;;;8.63;;
32521;SDS011;18963;51.504;5.316;2023-03-21T08:51:04;13.35;;;8.60;;
32521;SDS011;18963;51.504;5.316;2023-03-21T08:53:30;13.27;;;9.38;;
32521;SDS011;18963;51.504;5.316;2023-03-21T08:55:56;10.25;;;9.15;;
32521;SDS011;18963;51.504;5.316;2023-03-21T08:58:22;14.60;;;9.25;;
32521;SDS011;18963;51.504;5.316;2023-03-21T09:00:48;11.60;;;9.27;;
32521;SDS011;18963;51.504;5.316;2023-03-21T09:03:13;14.27;;;9.45;;
32521;SDS011;18963;51.504;5.316;2023-03-21T09:05:39;9.52;;;7.72;;
32521;SDS011;18963;51.504;5.316;2023-03-21T09:08:05;13.27;;;9.15;;
32521;SDS011;18963;51.504;5.316;2023-03-21T09:10:31;9.82;;;7.72;;
32521;SDS011;18963;51.504;5.316;2023-03-21T09:12:56;11.00;;;8.27;;
32521;SDS011;18963;51.504;5.316;2023-03-21T09:15:24;13.32;;;9.10;;
32521;SDS011;18963;51.504;5.316;2023-03-21T09:17:51;11.18;;;9.10;;
32521;SDS011;18963;51.504;5.316;2023-03-21T09:20:18;12.75;;;8.93;;
32521;SDS011;18963;51.504;5.316;2023-03-21T09:22:47;16.08;;;10.05;;
32521;SDS011;18963;51.504;5.316;2023-03-21T09:25:14;12.00;;;8.93;;
32521;SDS011;18963;51.504;5.316;2023-03-21T09:27:40;13.80;;;9.38;;
32521;SDS011;18963;51.504;5.316;2023-03-21T09:30:09;10.45;;;8.82;;
32521;SDS011;18963;51.504;5.316;2023-03-21T09:32:40;12.25;;;7.93;;
32521;SDS011;18963;51.504;5.316;2023-03-21T09:35:06;12.63;;;9.43;;
32521;SDS011;18963;51.504;5.316;2023-03-21T09:37:32;12.35;;;8.60;;
32521;SDS011;18963;51.504;5.316;2023-03-21T09:39:58;14.43;;;8.80;;
32521;SDS011;18963;51.504;5.316;2023-03-21T09:47:42;12.35;;;8.35;;
32521;SDS011;18963;51.504;5.316;2023-03-21T09:52:50;10.10;;;7.53;;
32521;SDS011;18963;51.504;5.316;2023-03-21T09:55:25;10.98;;;8.55;;
32521;SDS011;18963;51.504;5.316;2023-03-21T10:00:43;10.88;;;8.27;;
32521;SDS011;18963;51.504;5.316;2023-03-21T10:03:23;10.05;;;8.25;;
32521;SDS011;18963;51.504;5.316;2023-03-21T10:05:51;10.02;;;7.57;;
32521;SDS011;18963;51.504;5.316;2023-03-21T10:13:40;8.80;;;7.88;;
32521;SDS011;18963;51.504;5.316;2023-03-21T10:16:15;9.80;;;8.23;;
32521;SDS011;18963;51.504;5.316;2023-03-21T10:18:51;8.98;;;7.85;;
32521;SDS011;18963;51.504;5.316;2023-03-21T10:21:20;10.25;;;7.80;;
32521;SDS011;18963;51.504;5.316;2023-03-21T10:23:48;9.73;;;7.75;;
32521;SDS011;18963;51.504;5.316;2023-03-21T10:26:16;9.23;;;7.20;;
32521;SDS011;18963;51.504;5.316;2023-03-21T10:28:44;9.23;;;6.93;;
32521;SDS011;18963;51.504;5.316;2023-03-21T10:31:17;10.00;;;7.40;;
32521;SDS011;18963;51.504;5.316;2023-03-21T10:33:45;13.60;;;6.80;;
32521;SDS011;18963;51.504;5.316;2023-03-21T10:36:17;10.50;;;7.82;;
32521;SDS011;18963;51.504;5.316;2023-03-21T10:38:50;9.57;;;7.35;;
32521;SDS011;18963;51.504;5.316;2023-03-21T10:41:18;9.13;;;7.57;;
32521;SDS011;18963;51.504;5.316;2023-03-21T10:43:45;7.97;;;7.07;;
32521;SDS011;18963;51.504;5.316;2023-03-21T10:46:18;9.57;;;7.55;;
32521;SDS011;18963;51.504;5.316;2023-03-21T10:48:49;8.93;;;6.72;;
32521;SDS011;18963;51.504;5.316;2023-03-21T10:51:20;9.27;;;7.07;;
32521;SDS011;18963;51.504;5.316;2023-03-21T10:53:51;9.68;;;7.25;;
32521;SDS011;18963;51.504;5.316;2023-03-21T10:56:21;8.35;;;7.28;;
32521;SDS011;18963;51.504;5.316;2023-03-21T10:58:50;8.75;;;7.38;;
32521;SDS011;18963;51.504;5.316;2023-03-21T11:01:38;10.27;;;7.38;;
32521;SDS011;18963;51.504;5.316;2023-03-21T11:04:11;8.48;;;6.93;;
32521;SDS011;18963;51.504;5.316;2023-03-21T11:06:42;9.52;;;6.97;;
32521;SDS011;18963;51.504;5.316;2023-03-21T11:09:15;8.00;;;6.50;;
32521;SDS011;18963;51.504;5.316;2023-03-21T11:16:56;10.52;;;7.50;;
32521;SDS011;18963;51.504;5.316;2023-03-21T11:19:28;9.35;;;7.35;;
32521;SDS011;18963;51.504;5.316;2023-03-21T11:21:56;11.95;;;6.68;;
32521;SDS011;18963;51.504;5.316;2023-03-21T11:24:24;9.75;;;7.30;;
32521;SDS011;18963;51.504;5.316;2023-03-21T11:26:54;9.90;;;5.45;;
32521;SDS011;18963;51.504;5.316;2023-03-21T11:31:52;9.20;;;4.55;;
32521;SDS011;18963;51.504;5.316;2023-03-21T11:34:24;12.23;;;5.80;;
32521;SDS011;18963;51.504;5.316;2023-03-21T11:37:42;9.10;;;4.30;;
32521;SDS011;18963;51.504;5.316;2023-03-21T11:42:51;8.95;;;3.13;;
32521;SDS011;18963;51.504;5.316;2023-03-21T11:45:28;7.18;;;3.58;;
32521;SDS011;18963;51.504;5.316;2023-03-21T11:47:59;9.88;;;3.63;;
32521;SDS011;18963;51.504;5.316;2023-03-21T11:50:36;8.18;;;3.30;;
32521;SDS011;18963;51.504;5.316;2023-03-21T12:06:14;8.10;;;3.92;;
32521;SDS011;18963;51.504;5.316;2023-03-21T12:24:55;8.02;;;5.55;;
32521;SDS011;18963;51.504;5.316;2023-03-21T12:30:28;9.00;;;6.13;;
32521;SDS011;18963;51.504;5.316;2023-03-21T12:41:47;9.00;;;6.88;;
32521;SDS011;18963;51.504;5.316;2023-03-21T12:44:16;10.02;;;6.43;;
32521;SDS011;18963;51.504;5.316;2023-03-21T12:46:56;7.18;;;6.47;;
32521;SDS011;18963;51.504;5.316;2023-03-21T12:52:12;6.85;;;3.88;;
32521;SDS011;18963;51.504;5.316;2023-03-21T12:54:55;6.03;;;3.40;;
32521;SDS011;18963;51.504;5.316;2023-03-21T12:57:28;8.40;;;3.90;;
32521;SDS011;18963;51.504;5.316;2023-03-21T13:00:06;8.95;;;3.78;;
32521;SDS011;18963;51.504;5.316;2023-03-21T13:02:42;7.57;;;3.08;;
32521;SDS011;18963;51.504;5.316;2023-03-21T13:05:21;7.77;;;3.80;;
32521;SDS011;18963;51.504;5.316;2023-03-21T13:10:45;6.82;;;3.17;;
32521;SDS011;18963;51.504;5.316;2023-03-21T13:18:38;5.78;;;3.28;;
32521;SDS011;18963;51.504;5.316;2023-03-21T13:21:14;6.93;;;3.20;;
32521;SDS011;18963;51.504;5.316;2023-03-21T13:26:32;8.63;;;3.47;;
32521;SDS011;18963;51.504;5.316;2023-03-21T13:29:28;6.97;;;3.80;;
32521;SDS011;18963;51.504;5.316;2023-03-21T13:32:14;6.47;;;3.17;;
32521;SDS011;18963;51.504;5.316;2023-03-21T13:34:54;6.40;;;3.70;;
32521;SDS011;18963;51.504;5.316;2023-03-21T13:37:32;6.73;;;3.57;;
32521;SDS011;18963;51.504;5.316;2023-03-21T13:40:07;6.03;;;3.00;;
32521;SDS011;18963;51.504;5.316;2023-03-21T13:42:50;5.68;;;3.03;;
32521;SDS011;18963;51.504;5.316;2023-03-21T13:47:57;7.10;;;4.28;;
32521;SDS011;18963;51.504;5.316;2023-03-21T13:50:34;7.25;;;3.42;;
32521;SDS011;18963;51.504;5.316;2023-03-21T13:53:18;6.57;;;3.47;;
32521;SDS011;18963;51.504;5.316;2023-03-21T14:03:49;8.15;;;3.42;;
32521;SDS011;18963;51.504;5.316;2023-03-21T14:06:20;8.18;;;5.38;;
32521;SDS011;18963;51.504;5.316;2023-03-21T14:08:48;9.43;;;5.20;;
32521;SDS011;18963;51.504;5.316;2023-03-21T14:11:17;7.85;;;5.60;;
32521;SDS011;18963;51.504;5.316;2023-03-21T14:13:44;6.32;;;5.22;;
32521;SDS011;18963;51.504;5.316;2023-03-21T14:16:11;7.50;;;4.90;;
32521;SDS011;18963;51.504;5.316;2023-03-21T14:19:01;8.63;;;5.35;;
32521;SDS011;18963;51.504;5.316;2023-03-21T14:21:28;8.15;;;5.45;;
32521;SDS011;18963;51.504;5.316;2023-03-21T14:26:25;8.02;;;5.28;;
32521;SDS011;18963;51.504;5.316;2023-03-21T14:28:53;6.82;;;5.15;;
32521;SDS011;18963;51.504;5.316;2023-03-21T14:31:19;7.18;;;4.85;;
32521;SDS011;18963;51.504;5.316;2023-03-21T14:33:46;7.78;;;5.00;;
32521;SDS011;18963;51.504;5.316;2023-03-21T14:36:19;7.78;;;5.72;;
32521;SDS011;18963;51.504;5.316;2023-03-21T14:41:46;8.05;;;4.78;;
32521;SDS011;18963;51.504;5.316;2023-03-21T14:49:49;6.57;;;4.97;;
32521;SDS011;18963;51.504;5.316;2023-03-21T14:52:17;8.27;;;5.20;;
32521;SDS011;18963;51.504;5.316;2023-03-21T14:54:47;7.78;;;4.70;;
32521;SDS011;18963;51.504;5.316;2023-03-21T14:57:14;6.97;;;4.82;;
32521;SDS011;18963;51.504;5.316;2023-03-21T14:59:45;7.15;;;5.10;;
32521;SDS011;18963;51.504;5.316;2023-03-21T15:02:16;6.50;;;4.47;;
32521;SDS011;18963;51.504;5.316;2023-03-21T15:04:45;8.48;;;4.57;;
32521;SDS011;18963;51.504;5.316;2023-03-21T15:07:23;6.50;;;4.50;;
32521;SDS011;18963;51.504;5.316;2023-03-21T15:10:02;7.72;;;4.95;;
32521;SDS011;18963;51.504;5.316;2023-03-21T15:12:30;6.55;;;4.47;;
32521;SDS011;18963;51.504;5.316;2023-03-21T15:14:57;9.05;;;5.05;;
32521;SDS011;18963;51.504;5.316;2023-03-21T15:17:24;9.55;;;5.15;;
32521;SDS011;18963;51.504;5.316;2023-03-21T15:19:51;9.63;;;5.38;;
32521;SDS011;18963;51.504;5.316;2023-03-21T15:24:58;6.25;;;4.88;;
32521;SDS011;18963;51.504;5.316;2023-03-21T15:27:27;6.85;;;4.35;;
32521;SDS011;18963;51.504;5.316;2023-03-21T15:29:56;7.55;;;4.53;;
32521;SDS011;18963;51.504;5.316;2023-03-21T15:32:23;5.68;;;3.83;;
32521;SDS011;18963;51.504;5.316;2023-03-21T15:34:50;6.88;;;4.28;;
32521;SDS011;18963;51.504;5.316;2023-03-21T15:37:27;6.65;;;4.28;;
32521;SDS011;18963;51.504;5.316;2023-03-21T15:40:06;8.68;;;4.38;;
32521;SDS011;18963;51.504;5.316;2023-03-21T15:45:53;6.88;;;4.63;;
32521;SDS011;18963;51.504;5.316;2023-03-21T15:48:20;5.15;;;4.03;;
32521;SDS011;18963;51.504;5.316;2023-03-21T15:51:04;5.55;;;3.80;;
32521;SDS011;18963;51.504;5.316;2023-03-21T15:53:31;5.05;;;3.53;;
32521;SDS011;18963;51.504;5.316;2023-03-21T15:55:58;9.10;;;4.00;;
32521;SDS011;18963;51.504;5.316;2023-03-21T15:58:26;6.43;;;3.90;;
32521;SDS011;18963;51.504;5.316;2023-03-21T16:01:04;7.60;;;4.43;;
32521;SDS011;18963;51.504;5.316;2023-03-21T16:03:34;5.30;;;4.20;;
32521;SDS011;18963;51.504;5.316;2023-03-21T16:11:27;8.48;;;4.35;;
32521;SDS011;18963;51.504;5.316;2023-03-21T16:14:01;7.53;;;4.78;;
32521;SDS011;18963;51.504;5.316;2023-03-21T16:16:27;6.47;;;4.60;;
32521;SDS011;18963;51.504;5.316;2023-03-21T16:18:54;7.20;;;4.60;;
32521;SDS011;18963;51.504;5.316;2023-03-21T16:21:22;7.15;;;4.53;;
32521;SDS011;18963;51.504;5.316;2023-03-21T16:23:50;7.25;;;4.75;;
32521;SDS011;18963;51.504;5.316;2023-03-21T16:26:18;6.95;;;5.15;;
32521;SDS011;18963;51.504;5.316;2023-03-21T16:28:45;8.63;;;4.97;;
32521;SDS011;18963;51.504;5.316;2023-03-21T16:31:13;7.57;;;5.05;;
32521;SDS011;18963;51.504;5.316;2023-03-21T16:33:41;7.95;;;4.88;;
32521;SDS011;18963;51.504;5.316;2023-03-21T16:36:11;7.45;;;5.32;;
32521;SDS011;18963;51.504;5.316;2023-03-21T16:38:39;11.27;;;5.80;;
32521;SDS011;18963;51.504;5.316;2023-03-21T16:41:08;8.02;;;5.38;;
32521;SDS011;18963;51.504;5.316;2023-03-21T16:43:38;7.95;;;5.70;;
32521;SDS011;18963;51.504;5.316;2023-03-21T16:46:40;7.78;;;5.40;;
32521;SDS011;18963;51.504;5.316;2023-03-21T16:48:59;8.85;;;6.00;;
32521;SDS011;18963;51.504;5.316;2023-03-21T16:51:25;9.35;;;5.88;;
32521;SDS011;18963;51.504;5.316;2023-03-21T16:53:58;8.82;;;5.68;;
32521;SDS011;18963;51.504;5.316;2023-03-21T16:56:29;10.18;;;6.00;;
32521;SDS011;18963;51.504;5.316;2023-03-21T16:58:59;9.10;;;6.25;;
32521;SDS011;18963;51.504;5.316;2023-03-21T17:01:25;8.63;;;6.40;;
32521;SDS011;18963;51.504;5.316;2023-03-21T17:03:51;9.65;;;7.28;;
32521;SDS011;18963;51.504;5.316;2023-03-21T17:06:19;12.10;;;7.38;;
32521;SDS011;18963;51.504;5.316;2023-03-21T17:08:46;8.90;;;7.15;;
32521;SDS011;18963;51.504;5.316;2023-03-21T17:11:13;9.32;;;7.10;;
32521;SDS011;18963;51.504;5.316;2023-03-21T17:13:44;10.35;;;7.65;;
32521;SDS011;18963;51.504;5.316;2023-03-21T17:16:11;10.75;;;7.38;;
32521;SDS011;18963;51.504;5.316;2023-03-21T17:18:38;10.18;;;7.32;;
32521;SDS011;18963;51.504;5.316;2023-03-21T17:21:14;9.82;;;7.20;;
32521;SDS011;18963;51.504;5.316;2023-03-21T17:23:41;8.90;;;7.03;;
32521;SDS011;18963;51.504;5.316;2023-03-21T17:26:06;13.30;;;8.23;;
32521;SDS011;18963;51.504;5.316;2023-03-21T17:28:33;10.57;;;7.72;;
32521;SDS011;18963;51.504;5.316;2023-03-21T17:30:59;7.85;;;7.05;;
32521;SDS011;18963;51.504;5.316;2023-03-21T17:33:25;10.57;;;7.22;;
32521;SDS011;18963;51.504;5.316;2023-03-21T17:35:51;12.23;;;8.10;;
32521;SDS011;18963;51.504;5.316;2023-03-21T17:38:16;11.85;;;7.10;;
32521;SDS011;18963;51.504;5.316;2023-03-21T17:40:42;17.25;;;9.02;;
32521;SDS011;18963;51.504;5.316;2023-03-21T17:43:15;17.88;;;12.35;;
32521;SDS011;18963;51.504;5.316;2023-03-21T17:45:43;11.38;;;8.27;;
32521;SDS011;18963;51.504;5.316;2023-03-21T17:48:08;11.18;;;8.02;;
32521;SDS011;18963;51.504;5.316;2023-03-21T17:50:34;9.70;;;5.88;;
32521;SDS011;18963;51.504;5.316;2023-03-21T17:53:04;10.35;;;6.20;;
32521;SDS011;18963;51.504;5.316;2023-03-21T17:55:31;8.00;;;5.65;;
32521;SDS011;18963;51.504;5.316;2023-03-21T17:57:58;8.18;;;4.97;;
32521;SDS011;18963;51.504;5.316;2023-03-21T18:00:25;7.10;;;4.65;;
32521;SDS011;18963;51.504;5.316;2023-03-21T18:02:52;8.52;;;5.15;;
32521;SDS011;18963;51.504;5.316;2023-03-21T18:05:19;7.60;;;5.53;;
32521;SDS011;18963;51.504;5.316;2023-03-21T18:07:48;7.25;;;5.05;;
32521;SDS011;18963;51.504;5.316;2023-03-21T18:10:18;9.80;;;5.60;;
32521;SDS011;18963;51.504;5.316;2023-03-21T18:12:45;8.77;;;5.82;;